Time;durP1;ratioP1;P1;durP2;ratioP2;P2;SDS_P1;SDS_P2;PMS_P1;PMS_P2;Temp;Humidity;BMP_temperature;BMP_pressure;BME280_temperature;BME280_humidity;BME280_pressure;Samples;Min_cycle;Max_cycle;Signal;HPM_P1;HPM_P2
2021/07/27 00:04:23;;;;;;;5.73;5.33;;;19.20;99.90;;;;;;10340711;28;20244;-82
2021/07/27 00:09:25;;;;;;;5.23;4.73;;;19.20;99.90;;;;;;10364766;28;20218;-81
2021/07/27 00:14:28;;;;;;;5.63;5.23;;;19.20;99.90;;;;;;10381955;28;20205;-82
2021/07/27 00:19:31;;;;;;;6.10;5.20;;;19.20;99.90;;;;;;10361311;28;20218;-82
2021/07/27 00:24:33;;;;;;;5.80;4.97;;;19.20;99.90;;;;;;10341942;28;20236;-82
2021/07/27 00:29:36;;;;;;;7.30;5.80;;;19.20;99.90;;;;;;10371676;23;20234;-82
2021/07/27 00:34:40;;;;;;;5.77;5.27;;;19.20;99.90;;;;;;10410174;28;20715;-82
2021/07/27 00:39:42;;;;;;;6.03;5.53;;;19.20;99.90;;;;;;10345675;28;20313;-82
2021/07/27 00:44:45;;;;;;;6.93;5.33;;;19.10;99.90;;;;;;10378598;28;20218;-82
2021/07/27 00:49:48;;;;;;;7.10;6.40;;;19.10;99.90;;;;;;10381595;28;20225;-82
2021/07/27 00:54:50;;;;;;;6.77;6.17;;;19.10;99.90;;;;;;10380128;28;20209;-82
2021/07/27 00:59:53;;;;;;;6.83;5.87;;;19.00;99.90;;;;;;10351157;28;20238;-82
2021/07/27 01:04:55;;;;;;;7.67;6.50;;;19.00;99.90;;;;;;10377863;28;20680;-84
2021/07/27 01:09:58;;;;;;;6.70;6.20;;;19.00;99.90;;;;;;10399714;28;20304;-82
2021/07/27 01:15:02;;;;;;;6.13;5.63;;;19.00;99.90;;;;;;10413231;28;20256;-82
2021/07/27 01:20:10;;;;;;;7.63;5.20;;;19.00;99.90;;;;;;10341679;28;20260;-83
2021/07/27 01:46:30;;;;;;;8.10;6.20;;;18.80;99.90;;;;;;10359588;28;20269;-82
2021/07/27 01:51:43;;;;;;;7.37;6.57;;;18.70;99.90;;;;;;10395976;28;20230;-84
2021/07/27 01:56:48;;;;;;;7.57;6.87;;;18.70;99.90;;;;;;10376372;28;20257;-86
2021/07/27 02:01:50;;;;;;;6.43;5.93;;;18.60;99.90;;;;;;10362504;28;20561;-82
2021/07/27 02:06:52;;;;;;;7.63;6.93;;;18.60;99.90;;;;;;10367907;28;20647;-82
2021/07/27 02:11:59;;;;;;;8.30;7.07;;;18.60;99.90;;;;;;10391657;28;20214;-82
2021/07/27 02:17:03;;;;;;;6.80;6.23;;;18.70;99.90;;;;;;10403316;28;20215;-83
2021/07/27 02:22:05;;;;;;;9.77;6.33;;;18.70;99.90;;;;;;10404780;28;20206;-82
2021/07/27 02:27:09;;;;;;;8.27;6.73;;;18.70;99.90;;;;;;10395316;28;20277;-82
2021/07/27 02:32:11;;;;;;;7.07;6.30;;;18.70;99.90;;;;;;10374642;28;20218;-82
2021/07/27 02:37:14;;;;;;;7.97;7.20;;;18.70;99.90;;;;;;10385301;28;20222;-82
2021/07/27 02:42:18;;;;;;;7.17;6.67;;;18.70;99.90;;;;;;10420127;28;20200;-83
2021/07/27 02:47:20;;;;;;;7.57;7.00;;;18.70;99.90;;;;;;10410904;28;20535;-82
2021/07/27 02:52:22;;;;;;;7.80;7.10;;;18.70;99.90;;;;;;10411918;28;20206;-83
2021/07/27 02:57:25;;;;;;;7.57;6.90;;;18.70;99.90;;;;;;10404846;28;20232;-82
2021/07/27 03:02:30;;;;;;;8.30;7.70;;;18.70;99.90;;;;;;10389530;28;20290;-82
2021/07/27 03:07:37;;;;;;;7.10;6.57;;;18.80;99.90;;;;;;10379292;28;20237;-82
2021/07/27 03:12:40;;;;;;;7.30;6.60;;;18.80;99.90;;;;;;10376680;28;20205;-83
2021/07/27 03:17:43;;;;;;;8.20;7.50;;;18.80;99.90;;;;;;10380313;28;20919;-82
2021/07/27 03:22:45;;;;;;;7.97;7.17;;;18.70;99.90;;;;;;10357141;28;20210;-83
2021/07/27 03:27:50;;;;;;;10.47;9.20;;;18.70;99.90;;;;;;10364464;28;20241;-82
2021/07/27 03:32:52;;;;;;;8.43;7.40;;;18.70;99.90;;;;;;10399813;28;20296;-82
2021/07/27 03:37:54;;;;;;;7.80;7.00;;;18.70;99.90;;;;;;10398759;28;20609;-82
2021/07/27 03:42:57;;;;;;;8.55;7.80;;;18.70;99.90;;;;;;10400068;28;20208;-82
2021/07/27 03:48:01;;;;;;;9.10;8.20;;;18.70;99.90;;;;;;10360819;28;20257;-82
2021/07/27 03:53:03;;;;;;;7.90;6.80;;;18.80;99.90;;;;;;10368799;28;20230;-82
2021/07/27 03:58:15;;;;;;;7.27;6.57;;;18.80;99.90;;;;;;10355903;28;20227;-81
2021/07/27 04:03:17;;;;;;;9.10;7.57;;;18.80;99.90;;;;;;10361669;28;20293;-82
2021/07/27 04:08:19;;;;;;;7.70;6.50;;;18.70;99.90;;;;;;10342073;28;20230;-82
2021/07/27 04:13:23;;;;;;;7.67;6.83;;;18.70;99.90;;;;;;10395642;28;20194;-82
2021/07/27 04:18:25;;;;;;;8.70;7.83;;;18.70;99.90;;;;;;10403386;28;20356;-82
2021/07/27 04:23:27;;;;;;;8.70;7.90;;;18.70;99.90;;;;;;10395155;28;20675;-81
2021/07/27 04:28:31;;;;;;;8.73;8.00;;;18.70;99.90;;;;;;10386881;28;20269;-82
2021/07/27 04:33:37;;;;;;;9.00;8.23;;;18.80;99.90;;;;;;10368062;28;20195;-82
2021/07/27 04:38:40;;;;;;;7.80;7.07;;;18.80;99.90;;;;;;10410318;28;20218;-81
2021/07/27 04:43:43;;;;;;;8.23;7.43;;;18.80;99.90;;;;;;10377470;28;20213;-82
2021/07/27 04:48:45;;;;;;;8.07;7.47;;;18.80;99.90;;;;;;10382789;28;20214;-82
2021/07/27 04:53:49;;;;;;;8.60;7.80;;;18.80;99.90;;;;;;10367314;28;20197;-81
2021/07/27 04:58:52;;;;;;;7.93;7.23;;;18.80;99.90;;;;;;10423348;28;20701;-81
2021/07/27 05:03:56;;;;;;;8.67;7.87;;;18.80;99.90;;;;;;10415413;28;20216;-81
2021/07/27 05:08:58;;;;;;;7.77;7.10;;;18.80;99.90;;;;;;10401273;28;20265;-83
2021/07/27 05:14:02;;;;;;;8.47;7.77;;;18.80;99.90;;;;;;10418373;28;20196;-82
2021/07/27 05:19:26;;;;;;;7.97;7.20;;;18.90;99.90;;;;;;10399208;28;20232;-82
2021/07/27 05:24:28;;;;;;;12.17;8.20;;;18.90;99.90;;;;;;10400782;28;20223;-82
2021/07/27 05:29:31;;;;;;;9.00;8.20;;;19.00;99.90;;;;;;10394668;28;20244;-82
2021/07/27 05:34:33;;;;;;;9.53;8.63;;;19.00;99.90;;;;;;10399046;28;20237;-82
2021/07/27 05:39:36;;;;;;;8.70;8.00;;;19.00;99.90;;;;;;10412378;28;20225;-82
2021/07/27 05:44:39;;;;;;;9.53;8.70;;;19.00;99.90;;;;;;10398226;28;20237;-82
2021/07/27 05:49:42;;;;;;;8.00;7.20;;;19.10;99.90;;;;;;10391097;28;20226;-82
2021/07/27 05:54:44;;;;;;;8.23;7.53;;;19.10;99.90;;;;;;10393307;28;20229;-82
2021/07/27 05:59:48;;;;;;;7.57;6.97;;;19.20;99.90;;;;;;10431782;28;20747;-82
2021/07/27 06:04:50;;;;;;;7.97;7.17;;;19.20;99.90;;;;;;10415565;28;20275;-82
2021/07/27 06:09:52;;;;;;;8.40;7.67;;;19.30;99.90;;;;;;10400094;28;20230;-82
2021/07/27 06:14:56;;;;;;;9.07;8.17;;;19.40;99.90;;;;;;10413785;28;20198;-81
2021/07/27 06:19:58;;;;;;;8.37;7.67;;;19.60;99.90;;;;;;10412860;28;20706;-82
2021/07/27 06:25:00;;;;;;;10.47;9.47;;;19.80;99.90;;;;;;10437795;28;20230;-82
2021/07/27 06:30:06;;;;;;;8.30;7.60;;;20.00;99.90;;;;;;10408910;28;20221;-82
2021/07/27 06:35:10;;;;;;;9.37;7.60;;;20.30;99.90;;;;;;10388747;28;20209;-82
2021/07/27 06:40:12;;;;;;;8.03;7.23;;;20.50;99.90;;;;;;10424768;28;20343;-82
2021/07/27 06:45:16;;;;;;;9.40;6.90;;;20.70;99.90;;;;;;10389114;28;20344;-82
2021/07/27 06:50:18;;;;;;;7.00;6.40;;;20.80;99.90;;;;;;10411263;28;20664;-81
2021/07/27 06:55:20;;;;;;;9.53;6.77;;;20.80;99.90;;;;;;10418601;28;20211;-82
2021/07/27 07:00:24;;;;;;;8.40;7.57;;;20.80;99.90;;;;;;10423703;28;20289;-81
2021/07/27 07:05:26;;;;;;;7.47;6.77;;;20.90;99.90;;;;;;10407244;28;20221;-82
2021/07/27 07:10:28;;;;;;;8.13;7.37;;;21.00;99.90;;;;;;10423961;28;20221;-82
2021/07/27 07:15:32;;;;;;;10.10;7.03;;;21.20;99.90;;;;;;10424390;28;20603;-82
2021/07/27 07:20:34;;;;;;;7.23;6.53;;;21.50;99.90;;;;;;10426927;28;20232;-82
2021/07/27 07:25:39;;;;;;;9.83;6.60;;;21.60;99.90;;;;;;10416011;28;20281;-82
2021/07/27 07:30:42;;;;;;;6.63;6.13;;;21.80;99.90;;;;;;10432663;28;20233;-82
2021/07/27 07:35:44;;;;;;;6.73;6.23;;;22.10;99.90;;;;;;10408521;28;20632;-82
2021/07/27 07:40:47;;;;;;;6.70;6.10;;;22.40;99.90;;;;;;10397423;28;20213;-82
2021/07/27 07:45:50;;;;;;;6.90;5.80;;;22.40;99.90;;;;;;10414094;28;20217;-82
2021/07/27 07:50:52;;;;;;;6.90;6.20;;;22.50;99.90;;;;;;10416051;28;20230;-82
2021/07/27 07:55:55;;;;;;;6.30;5.80;;;22.70;99.90;;;;;;10413084;28;20206;-82
2021/07/27 08:00:58;;;;;;;6.47;5.97;;;22.80;99.90;;;;;;10415799;28;20258;-82
2021/07/27 08:06:00;;;;;;;6.60;6.03;;;23.10;99.90;;;;;;10426500;28;20210;-82
2021/07/27 08:11:04;;;;;;;5.27;4.90;;;23.40;99.90;;;;;;10412607;28;20214;-82
2021/07/27 08:16:10;;;;;;;6.03;5.43;;;23.80;99.90;;;;;;10395551;28;20655;-82
2021/07/27 08:21:12;;;;;;;6.03;5.53;;;24.20;99.90;;;;;;10396610;28;20576;-83
2021/07/27 08:26:14;;;;;;;4.97;4.67;;;24.50;99.90;;;;;;10417548;28;20256;-82
2021/07/27 08:31:17;;;;;;;6.43;5.83;;;24.70;99.90;;;;;;10390890;28;20202;-82
2021/07/27 08:36:20;;;;;;;6.00;5.50;;;24.80;99.90;;;;;;10428840;28;20221;-82
2021/07/27 08:41:28;;;;;;;6.77;6.27;;;25.00;99.90;;;;;;10407827;28;20201;-82
2021/07/27 08:46:32;;;;;;;10.17;5.80;;;25.10;99.90;;;;;;10408461;28;20268;-82
2021/07/27 08:51:35;;;;;;;8.07;5.93;;;25.30;99.90;;;;;;10426194;28;20202;-82
2021/07/27 08:56:44;;;;;;;6.57;6.03;;;25.20;99.90;;;;;;10421068;28;20603;-82
2021/07/27 09:01:48;;;;;;;6.13;5.63;;;25.30;99.90;;;;;;10401795;28;20224;-82
2021/07/27 09:06:58;;;;;;;7.10;6.40;;;25.60;99.90;;;;;;10420126;28;20221;-82
2021/07/27 09:12:02;;;;;;;6.13;5.63;;;26.20;99.90;;;;;;10412443;28;20661;-82
2021/07/27 09:17:06;;;;;;;6.40;5.70;;;26.50;99.90;;;;;;10396357;28;20237;-82
2021/07/27 09:22:08;;;;;;;6.73;5.60;;;26.50;99.90;;;;;;10407229;28;20197;-82
2021/07/27 09:27:12;;;;;;;6.33;5.73;;;26.40;99.90;;;;;;10405234;28;20225;-82
2021/07/27 09:32:20;;;;;;;6.03;5.53;;;26.70;99.90;;;;;;10406349;28;20202;-82
2021/07/27 09:37:26;;;;;;;5.77;5.37;;;27.20;99.90;;;;;;10406849;28;20241;-82
2021/07/27 09:42:29;;;;;;;6.00;5.33;;;27.50;99.90;;;;;;10430430;28;20198;-82
2021/07/27 09:47:32;;;;;;;6.30;5.77;;;27.80;99.90;;;;;;10395211;28;20705;-82
2021/07/27 09:52:34;;;;;;;5.80;5.30;;;27.70;99.90;;;;;;10410093;28;20212;-82
2021/07/27 09:57:36;;;;;;;5.77;5.37;;;27.60;99.90;;;;;;10408419;28;20226;-82
2021/07/27 10:02:43;;;;;;;6.17;5.67;;;27.60;99.90;;;;;;10394688;28;20209;-82
2021/07/27 10:07:51;;;;;;;5.30;4.90;;;27.70;99.90;;;;;;10389865;28;20226;-82
2021/07/27 10:13:04;;;;;;;5.97;5.37;;;28.00;99.90;;;;;;10415022;28;20202;-83
2021/07/27 10:18:07;;;;;;;4.73;4.43;;;28.90;99.90;;;;;;10397778;28;20222;-83
2021/07/27 10:23:17;;;;;;;4.87;4.53;;;30.00;99.90;;;;;;10385338;28;20202;-82
2021/07/27 10:28:23;;;;;;;5.97;5.47;;;30.10;98.30;;;;;;10417272;28;20743;-82
2021/07/27 10:33:29;;;;;;;5.37;4.97;;;29.70;93.50;;;;;;10396205;28;20206;-82
2021/07/27 10:38:37;;;;;;;5.03;4.73;;;29.10;94.60;;;;;;10381484;28;20218;-82
2021/07/27 10:43:39;;;;;;;5.40;4.90;;;28.50;98.20;;;;;;10407185;28;20202;-82
2021/07/27 10:48:43;;;;;;;5.63;5.20;;;27.80;95.00;;;;;;10368450;28;20762;-82
2021/07/27 10:53:52;;;;;;;5.17;4.87;;;27.30;95.50;;;;;;10394368;28;20233;-82
2021/07/27 10:58:54;;;;;;;6.67;6.17;;;27.00;95.50;;;;;;10421261;28;20224;-82
2021/07/27 11:04:08;;;;;;;6.07;5.67;;;26.60;96.10;;;;;;10403922;28;20271;-82
2021/07/27 11:09:12;;;;;;;6.63;6.10;;;26.30;96.80;;;;;;10422653;28;20883;-82
2021/07/27 11:14:22;;;;;;;5.77;5.37;;;26.00;99.90;;;;;;10402163;28;20198;-82
2021/07/27 11:19:27;;;;;;;5.93;5.53;;;25.80;99.90;;;;;;10387799;28;20221;-82
2021/07/27 11:24:30;;;;;;;6.57;6.07;;;25.60;99.90;;;;;;10424359;28;20198;-82
2021/07/27 11:29:32;;;;;;;6.77;6.20;;;25.60;99.90;;;;;;10415182;28;20314;-82
2021/07/27 11:34:35;;;;;;;6.23;5.73;;;25.70;99.90;;;;;;10406745;28;20256;-82
2021/07/27 11:39:42;;;;;;;6.27;5.67;;;25.70;99.20;;;;;;10402215;28;20223;-82
2021/07/27 11:44:44;;;;;;;5.57;5.17;;;25.80;99.90;;;;;;10386097;28;20201;-82
2021/07/27 11:49:56;;;;;;;6.00;5.13;;;26.00;99.90;;;;;;10407338;28;20226;-82
2021/07/27 11:55:02;;;;;;;6.77;4.70;;;26.20;99.90;;;;;;10390104;28;20221;-82
2021/07/27 12:00:09;;;;;;;5.60;5.10;;;26.40;99.90;;;;;;10392917;28;20289;-82
2021/07/27 12:05:14;;;;;;;6.33;5.80;;;26.50;99.90;;;;;;10408150;28;20221;-82
2021/07/27 12:10:17;;;;;;;5.10;4.80;;;26.50;99.90;;;;;;10378445;28;20267;-82
2021/07/27 12:15:19;;;;;;;5.40;4.90;;;26.60;99.90;;;;;;10403231;28;20385;-82
2021/07/27 12:20:24;;;;;;;5.47;4.90;;;26.60;99.90;;;;;;10391772;28;20529;-82
2021/07/27 12:25:26;;;;;;;5.80;4.83;;;26.70;99.90;;;;;;10407067;28;20221;-82
2021/07/27 12:30:29;;;;;;;5.37;4.97;;;26.70;99.10;;;;;;10349652;23;20338;-80
2021/07/27 12:35:33;;;;;;;4.67;4.37;;;26.70;99.90;;;;;;10314613;28;20196;-80
2021/07/27 12:40:36;;;;;;;4.20;4.00;;;26.70;98.20;;;;;;10329880;28;20230;-80
2021/07/27 12:45:43;;;;;;;4.47;4.17;;;26.70;99.40;;;;;;10329485;28;20294;-80
2021/07/27 12:50:46;;;;;;;6.20;4.90;;;26.70;95.10;;;;;;10332286;28;20219;-79
2021/07/27 12:55:48;;;;;;;4.83;4.43;;;26.60;95.20;;;;;;10314784;28;20590;-79
2021/07/27 13:00:50;;;;;;;4.30;4.00;;;26.40;98.70;;;;;;10315939;28;20231;-79
2021/07/27 13:05:55;;;;;;;4.80;4.40;;;26.30;95.80;;;;;;10314166;28;20226;-79
2021/07/27 13:10:57;;;;;;;4.60;4.30;;;26.00;97.80;;;;;;10315130;28;20230;-80
2021/07/27 13:16:02;;;;;;;5.30;4.90;;;25.90;95.90;;;;;;10310351;28;20207;-81
2021/07/27 13:21:05;;;;;;;4.30;4.00;;;25.70;95.40;;;;;;10311412;28;20660;-79
2021/07/27 13:26:08;;;;;;;4.80;4.50;;;25.70;96.20;;;;;;10318424;28;20253;-80
2021/07/27 13:31:10;;;;;;;5.50;5.10;;;25.80;99.00;;;;;;10330517;28;20293;-80
2021/07/27 13:36:14;;;;;;;5.20;4.80;;;25.80;99.70;;;;;;10333697;28;20574;-81
2021/07/27 13:41:16;;;;;;;6.30;5.03;;;26.00;99.90;;;;;;10321581;28;20224;-80
2021/07/27 13:46:19;;;;;;;7.10;4.80;;;26.00;99.90;;;;;;10332100;28;20219;-81
2021/07/27 13:51:22;;;;;;;5.30;4.80;;;26.10;99.90;;;;;;10330531;28;20196;-80
2021/07/27 13:56:25;;;;;;;5.77;5.37;;;26.20;92.90;;;;;;10326771;28;20203;-81
2021/07/27 14:01:27;;;;;;;4.80;4.50;;;26.20;92.60;;;;;;10321001;28;20199;-81
2021/07/27 14:06:31;;;;;;;6.13;4.70;;;26.30;92.50;;;;;;10334892;28;20215;-79
2021/07/27 14:11:33;;;;;;;5.23;4.83;;;26.40;96.60;;;;;;10337225;28;20258;-79
2021/07/27 14:16:35;;;;;;;5.80;5.30;;;26.40;94.30;;;;;;10337001;28;20200;-80
2021/07/27 14:21:38;;;;;;;5.13;4.73;;;26.40;91.80;;;;;;10331987;28;20210;-80
2021/07/27 14:26:40;;;;;;;6.20;5.70;;;26.20;90.90;;;;;;10329201;28;20224;-80
2021/07/27 14:31:43;;;;;;;6.33;5.70;;;26.20;87.00;;;;;;10333323;28;20209;-80
2021/07/27 14:36:46;;;;;;;5.37;5.00;;;26.20;91.30;;;;;;10341828;28;20226;-79
2021/07/27 14:41:49;;;;;;;6.20;5.70;;;26.30;91.30;;;;;;10334679;28;20211;-80
2021/07/27 14:46:51;;;;;;;6.50;6.00;;;26.20;91.00;;;;;;10322192;28;20234;-80
2021/07/27 14:51:55;;;;;;;6.07;5.67;;;26.10;94.30;;;;;;10334558;28;20199;-80
2021/07/27 14:56:59;;;;;;;6.60;6.00;;;26.00;92.30;;;;;;10338395;28;20223;-80
2021/07/27 15:02:01;;;;;;;6.13;5.63;;;26.00;97.90;;;;;;10338945;28;20586;-80
2021/07/27 15:07:05;;;;;;;6.03;5.53;;;26.00;91.90;;;;;;10322096;28;20286;-81
2021/07/27 15:12:08;;;;;;;5.50;5.10;;;26.00;94.30;;;;;;10310546;28;20220;-80
2021/07/27 15:17:11;;;;;;;6.50;5.90;;;25.90;92.10;;;;;;10327208;28;20226;-80
2021/07/27 15:22:15;;;;;;;6.37;5.87;;;25.90;93.60;;;;;;10340217;28;20286;-80
2021/07/27 15:27:17;;;;;;;5.97;5.57;;;25.90;96.00;;;;;;10323874;28;20593;-79
2021/07/27 15:32:19;;;;;;;6.70;6.10;;;25.80;94.50;;;;;;10302663;28;20226;-80
2021/07/27 15:37:23;;;;;;;7.67;7.03;;;25.70;97.50;;;;;;10304487;28;20640;-79
2021/07/27 15:42:25;;;;;;;6.60;6.10;;;25.70;99.90;;;;;;10303413;28;20204;-79
2021/07/27 15:47:27;;;;;;;6.10;5.60;;;25.60;97.60;;;;;;10304267;28;20247;-79
2021/07/27 15:52:31;;;;;;;6.50;5.90;;;25.60;98.10;;;;;;10301649;28;20295;-79
2021/07/27 15:57:34;;;;;;;6.70;6.20;;;25.60;98.20;;;;;;10301956;28;20278;-79
2021/07/27 16:02:36;;;;;;;7.20;6.50;;;25.60;99.50;;;;;;10299611;28;20279;-80
2021/07/27 16:07:40;;;;;;;6.50;6.00;;;25.60;99.90;;;;;;10305579;28;20234;-80
2021/07/27 16:12:42;;;;;;;6.93;6.20;;;25.50;99.90;;;;;;10303864;28;20200;-80
2021/07/27 16:17:44;;;;;;;6.90;6.30;;;25.40;99.90;;;;;;10308710;28;20239;-80
2021/07/27 16:22:48;;;;;;;6.47;5.97;;;25.40;99.90;;;;;;10333934;28;20209;-78
2021/07/27 16:27:50;;;;;;;7.23;6.63;;;25.40;99.90;;;;;;10331848;28;20234;-78
2021/07/27 16:32:52;;;;;;;6.90;6.30;;;25.40;99.90;;;;;;10328963;28;20241;-80
2021/07/27 16:37:58;;;;;;;6.43;5.93;;;25.30;99.90;;;;;;10332972;28;20219;-80
2021/07/27 16:43:00;;;;;;;6.67;6.13;;;25.40;99.90;;;;;;10334011;28;20223;-79
2021/07/27 16:48:03;;;;;;;7.60;6.90;;;25.40;99.90;;;;;;10326204;28;20291;-80
2021/07/27 16:53:06;;;;;;;6.90;6.33;;;25.30;99.90;;;;;;10298409;28;20684;-80
2021/07/27 16:58:08;;;;;;;6.97;6.37;;;25.30;99.90;;;;;;10302363;28;20219;-79
2021/07/27 17:03:10;;;;;;;8.23;6.40;;;25.30;99.90;;;;;;10299762;28;20689;-79
2021/07/27 17:08:14;;;;;;;6.80;6.20;;;25.10;99.90;;;;;;10301037;28;20231;-79
2021/07/27 17:13:16;;;;;;;8.70;7.50;;;25.10;99.90;;;;;;10298916;28;20235;-79
2021/07/27 17:18:21;;;;;;;7.10;6.60;;;25.00;99.90;;;;;;10302804;28;20223;-79
2021/07/27 17:23:25;;;;;;;7.13;6.47;;;24.90;99.90;;;;;;10300578;28;20195;-79
2021/07/27 17:28:27;;;;;;;8.33;6.43;;;24.80;99.90;;;;;;10322076;28;20313;-79
2021/07/27 17:33:29;;;;;;;8.50;7.77;;;24.70;99.90;;;;;;10299858;28;20242;-78
2021/07/27 17:38:33;;;;;;;7.40;6.80;;;24.60;99.90;;;;;;10298269;28;20222;-79
2021/07/27 17:43:37;;;;;;;9.13;7.37;;;24.50;99.90;;;;;;10297408;28;20664;-78
2021/07/27 17:48:39;;;;;;;11.63;10.73;;;24.40;99.90;;;;;;10305194;28;20242;-78
2021/07/27 17:53:43;;;;;;;8.83;8.03;;;24.30;99.90;;;;;;10309875;28;20208;-78
2021/07/27 17:58:45;;;;;;;7.40;6.80;;;24.30;99.90;;;;;;10302438;28;20291;-78
2021/07/27 18:03:47;;;;;;;7.20;6.53;;;24.20;99.90;;;;;;10303538;28;20195;-79
2021/07/27 18:08:50;;;;;;;8.20;7.50;;;24.10;99.90;;;;;;10335826;28;20334;-78
2021/07/27 18:13:52;;;;;;;7.33;6.57;;;24.20;99.90;;;;;;10320761;28;20200;-78
2021/07/27 18:18:54;;;;;;;7.20;6.50;;;24.10;99.90;;;;;;10320194;28;20235;-78
2021/07/27 18:23:58;;;;;;;7.60;7.00;;;24.10;99.90;;;;;;10338532;28;20199;-79
2021/07/27 18:29:00;;;;;;;7.70;7.00;;;24.00;99.90;;;;;;10390130;23;20234;-82
2021/07/27 18:34:06;;;;;;;6.97;6.37;;;24.00;99.90;;;;;;10373609;28;20201;-81
2021/07/27 18:39:11;;;;;;;8.47;7.40;;;23.90;99.90;;;;;;10394214;28;20218;-82
2021/07/27 18:44:13;;;;;;;7.50;6.80;;;23.90;99.90;;;;;;10430794;28;20220;-81
2021/07/27 18:49:15;;;;;;;6.87;6.37;;;23.80;99.90;;;;;;10415160;28;20256;-81
2021/07/27 18:54:19;;;;;;;7.77;6.60;;;23.80;99.90;;;;;;10433090;28;20682;-81
2021/07/27 18:59:21;;;;;;;11.80;7.70;;;23.70;99.90;;;;;;10397875;28;20217;-81
2021/07/27 19:04:23;;;;;;;7.23;6.53;;;23.70;99.90;;;;;;10412046;28;20561;-81
2021/07/27 19:09:27;;;;;;;8.07;7.17;;;23.60;99.90;;;;;;10395214;28;20230;-83
2021/07/27 19:14:29;;;;;;;7.77;7.00;;;23.50;99.90;;;;;;10412370;28;20681;-83
2021/07/27 19:19:31;;;;;;;7.53;6.83;;;23.50;99.90;;;;;;10380715;28;20230;-83
2021/07/27 19:24:35;;;;;;;7.27;6.57;;;23.40;99.90;;;;;;10397937;28;20225;-83
2021/07/27 19:29:38;;;;;;;7.80;7.07;;;23.40;99.90;;;;;;10399280;28;20492;-83
2021/07/27 19:34:40;;;;;;;7.60;7.00;;;23.30;99.90;;;;;;10389307;28;20482;-82
2021/07/27 19:39:46;;;;;;;8.87;7.30;;;23.30;99.90;;;;;;10419576;28;20697;-82
2021/07/27 19:44:53;;;;;;;7.70;7.00;;;23.20;99.90;;;;;;10382443;28;20214;-81
2021/07/27 19:49:55;;;;;;;7.30;6.70;;;23.20;99.90;;;;;;10381936;28;20229;-82
2021/07/27 19:54:59;;;;;;;11.70;6.73;;;23.10;99.90;;;;;;10422241;28;20236;-81
2021/07/27 20:00:02;;;;;;;7.80;6.77;;;23.10;99.90;;;;;;10417354;28;20748;-82
2021/07/27 20:05:15;;;;;;;7.60;6.90;;;23.00;99.90;;;;;;10414529;28;20197;-81
2021/07/27 20:10:19;;;;;;;7.87;7.17;;;22.90;99.90;;;;;;10402008;28;20226;-82
2021/07/27 20:15:21;;;;;;;8.13;6.17;;;22.90;99.90;;;;;;10415166;28;20221;-82
2021/07/27 20:20:23;;;;;;;8.30;6.80;;;22.80;99.90;;;;;;10419898;28;20214;-82
2021/07/27 20:25:27;;;;;;;6.33;5.83;;;22.80;99.90;;;;;;10417342;28;20467;-82
2021/07/27 20:30:29;;;;;;;7.70;7.00;;;22.80;99.90;;;;;;10379614;28;20226;-82
2021/07/27 20:35:31;;;;;;;7.60;7.00;;;22.80;99.90;;;;;;10400049;28;20209;-82
2021/07/27 20:40:35;;;;;;;8.70;6.87;;;22.80;99.90;;;;;;10398848;28;20708;-82
2021/07/27 20:45:37;;;;;;;7.83;6.97;;;22.80;99.90;;;;;;10393882;28;20209;-82
2021/07/27 20:50:39;;;;;;;7.93;7.00;;;22.80;99.90;;;;;;10395660;28;20616;-82
2021/07/27 21:17:51;;;;;;;7.13;6.43;;;22.50;99.90;;;;;;10428227;23;20350;-80
2021/07/27 21:22:53;;;;;;;7.20;6.40;;;22.50;99.90;;;;;;10237944;28;20250;-80
2021/07/27 21:28:01;;;;;;;8.30;7.07;;;22.40;99.90;;;;;;10276950;28;20228;-81
2021/07/27 21:33:04;;;;;;;7.87;7.30;;;22.30;99.90;;;;;;10272624;28;20195;-80
2021/07/27 21:38:06;;;;;;;8.23;7.03;;;22.30;99.90;;;;;;10267128;28;20215;-80
2021/07/27 21:43:35;;;;;;;8.10;7.40;;;22.20;99.90;;;;;;10299323;28;20211;-80
2021/07/27 21:48:47;;;;;;;10.97;7.50;;;22.20;99.90;;;;;;10258729;28;20375;-80
2021/07/27 21:53:55;;;;;;;8.20;7.30;;;22.10;99.90;;;;;;10285654;28;20212;-80
2021/07/27 21:58:57;;;;;;;8.00;7.20;;;22.10;99.90;;;;;;10284418;28;20220;-80
2021/07/27 22:04:08;;;;;;;8.37;7.77;;;22.10;99.90;;;;;;10265415;28;20206;-80
2021/07/27 22:09:18;;;;;;;11.33;10.23;;;22.10;99.90;;;;;;10299745;28;20234;-80
2021/07/27 22:14:23;;;;;;;11.67;10.67;;;22.10;99.90;;;;;;10283922;28;20310;-81
2021/07/27 22:19:33;;;;;;;9.03;8.13;;;22.10;99.90;;;;;;10300164;28;20224;-80
2021/07/27 22:24:56;;;;;;;11.47;10.40;;;22.00;99.90;;;;;;10306937;28;20651;-81
2021/07/27 22:29:58;;;;;;;11.13;9.60;;;22.00;99.90;;;;;;10286763;28;20263;-81
2021/07/27 22:35:01;;;;;;;11.00;9.87;;;21.90;99.90;;;;;;10301915;28;20215;-81
2021/07/27 22:40:07;;;;;;;11.73;10.73;;;21.90;99.90;;;;;;10292067;28;20691;-80
2021/07/27 22:45:10;;;;;;;12.47;11.37;;;21.90;99.90;;;;;;10321824;28;20207;-81
2021/07/27 22:50:17;;;;;;;12.07;11.00;;;21.90;99.90;;;;;;10303384;28;20226;-82
2021/07/27 22:55:19;;;;;;;11.40;10.30;;;21.80;99.90;;;;;;10302405;28;20210;-82
2021/07/27 23:00:22;;;;;;;9.90;9.00;;;21.80;99.90;;;;;;10262673;28;20212;-80
2021/07/27 23:05:28;;;;;;;11.33;10.33;;;21.70;99.90;;;;;;10281028;28;20664;-81
2021/07/27 23:10:30;;;;;;;12.90;11.77;;;21.70;99.90;;;;;;10260885;28;20251;-80
2021/07/27 23:15:32;;;;;;;11.63;10.40;;;21.70;99.90;;;;;;10275277;28;20207;-80
2021/07/27 23:20:40;;;;;;;12.30;11.20;;;21.70;99.90;;;;;;10277719;28;20620;-81
2021/07/27 23:25:52;;;;;;;12.17;10.97;;;21.60;99.90;;;;;;10285005;28;20207;-81
2021/07/27 23:30:54;;;;;;;11.80;10.63;;;21.60;99.90;;;;;;10300135;28;20743;-81
2021/07/27 23:35:58;;;;;;;11.83;10.73;;;21.60;99.90;;;;;;10286043;28;20204;-81
2021/07/27 23:41:00;;;;;;;11.40;10.33;;;21.50;99.90;;;;;;10278738;28;20251;-81
2021/07/27 23:46:02;;;;;;;11.77;10.67;;;21.60;99.90;;;;;;10314864;28;20286;-81
2021/07/27 23:51:09;;;;;;;10.90;9.97;;;21.60;99.90;;;;;;10290499;28;20307;-80
2021/07/27 23:56:17;;;;;;;11.17;10.20;;;21.60;99.90;;;;;;10283131;28;20214;-81
